Time;durP1;ratioP1;P1;durP2;ratioP2;P2;SDS_P1;SDS_P2;PMS_P1;PMS_P2;Temp;Humidity;BMP_temperature;BMP_pressure;BME280_temperature;BME280_humidity;BME280_pressure;Samples;Min_cycle;Max_cycle;Signal;HPM_P1;HPM_P2
2021/08/10 00:02:28;;;;;;;3.53;3.23;;;;;;;15.29;100.00;99325.25;10496672;28;20178;-75
2021/08/10 00:07:47;;;;;;;3.80;2.60;;;;;;;15.30;100.00;99318.53;10496647;28;20202;-75
2021/08/10 00:13:06;;;;;;;2.60;2.40;;;;;;;15.39;100.00;99315.97;10496690;28;20194;-76
2021/08/10 00:18:25;;;;;;;3.90;2.47;;;;;;;15.46;100.00;99321.38;10496265;28;20242;-75
2021/08/10 00:23:44;;;;;;;3.17;2.97;;;;;;;15.52;100.00;99322.44;10483778;28;20187;-76
2021/08/10 00:29:04;;;;;;;5.23;3.23;;;;;;;15.54;100.00;99305.41;10455433;28;20207;-76
2021/08/10 00:34:23;;;;;;;4.50;3.10;;;;;;;15.55;100.00;99304.97;10453559;28;20171;-76
2021/08/10 00:39:42;;;;;;;3.50;3.20;;;;;;;15.62;100.00;99299.25;10454270;28;20211;-76
2021/08/10 00:45:01;;;;;;;3.77;3.47;;;;;;;15.66;100.00;99296.41;10455474;28;20191;-76
2021/08/10 00:50:21;;;;;;;3.73;3.43;;;;;;;15.71;99.92;99295.94;10452593;28;20214;-76
2021/08/10 00:55:40;;;;;;;4.13;3.70;;;;;;;15.74;99.67;99295.84;10485704;28;20182;-76
2021/08/10 01:00:59;;;;;;;4.03;3.53;;;;;;;15.84;100.00;99294.81;10496601;28;20262;-76
2021/08/10 01:06:39;;;;;;;4.27;3.97;;;;;;;15.85;100.00;99296.41;10496424;28;20171;-76
2021/08/10 01:12:06;;;;;;;4.47;4.13;;;;;;;15.75;100.00;99302.19;10495341;28;20665;-76
2021/08/10 01:17:50;;;;;;;4.20;3.40;;;;;;;15.61;100.00;99317.09;10495163;28;20179;-76
2021/08/10 01:23:12;;;;;;;3.67;3.37;;;;;;;15.59;100.00;99299.34;10492890;28;20191;-76
2021/08/10 01:28:49;;;;;;;3.50;3.20;;;;;;;15.73;100.00;99294.28;10460876;28;20677;-76
2021/08/10 01:34:27;;;;;;;4.17;3.70;;;;;;;15.83;100.00;99301.59;10459308;28;20172;-76
2021/08/10 01:39:51;;;;;;;4.30;3.90;;;;;;;15.72;100.00;99303.81;10460455;28;20627;-75
2021/08/10 01:45:11;;;;;;;4.33;3.93;;;;;;;15.62;100.00;99295.72;10465791;28;20179;-76
2021/08/10 01:50:31;;;;;;;5.73;3.70;;;;;;;15.67;100.00;99295.22;10499914;28;20214;-75
2021/08/10 01:55:50;;;;;;;5.17;3.20;;;;;;;15.74;100.00;99279.22;10501631;28;20179;-76
2021/08/10 02:01:09;;;;;;;4.73;2.87;;;;;;;15.73;100.00;99269.31;10501885;28;20186;-76
2021/08/10 02:06:29;;;;;;;5.57;3.33;;;;;;;15.76;100.00;99276.00;10499509;28;20183;-76
2021/08/10 02:11:52;;;;;;;4.03;3.67;;;;;;;15.78;100.00;99282.69;10500905;28;20194;-76
2021/08/10 02:17:14;;;;;;;4.63;3.47;;;;;;;15.66;100.00;99260.34;10500475;28;20262;-76
2021/08/10 02:22:34;;;;;;;4.20;3.40;;;;;;;15.62;100.00;99277.06;10501468;28;20182;-76
2021/08/10 02:27:56;;;;;;;5.13;3.70;;;;;;;15.69;100.00;99282.47;10499650;28;20210;-76
2021/08/10 02:33:18;;;;;;;6.73;3.70;;;;;;;15.74;100.00;99273.66;10499032;28;20179;-75
2021/08/10 02:38:37;;;;;;;4.40;4.00;;;;;;;15.79;100.00;99267.59;10463912;28;20183;-76
2021/08/10 02:43:57;;;;;;;4.33;3.57;;;;;;;15.81;100.00;99264.38;10459423;28;20191;-75
2021/08/10 02:49:15;;;;;;;22.10;4.53;;;;;;;15.80;100.00;99271.16;10456456;28;20207;-75
2021/08/10 02:54:36;;;;;;;3.70;3.40;;;;;;;15.79;100.00;99270.38;10458981;28;20191;-75
2021/08/10 03:00:08;;;;;;;6.53;4.07;;;;;;;15.84;100.00;99261.53;10458628;28;20206;-74
2021/08/10 03:05:30;;;;;;;7.07;3.67;;;;;;;15.87;100.00;99260.69;10466080;28;20629;-75
2021/08/10 03:10:53;;;;;;;5.00;4.00;;;;;;;15.87;100.00;99263.47;10497946;28;20647;-75
2021/08/10 03:16:13;;;;;;;4.47;4.10;;;;;;;15.91;100.00;99260.59;10498409;28;20175;-78
2021/08/10 03:21:34;;;;;;;4.87;3.93;;;;;;;15.82;100.00;99260.41;10499240;28;20186;-75
2021/08/10 03:26:56;;;;;;;4.67;4.27;;;;;;;15.79;100.00;99262.06;10497765;28;20188;-75
2021/08/10 03:32:15;;;;;;;6.03;4.57;;;;;;;15.85;100.00;99270.66;10496494;28;20178;-75
2021/08/10 03:37:35;;;;;;;4.83;4.30;;;;;;;15.73;100.00;99258.22;10468266;28;20187;-75
2021/08/10 03:42:54;;;;;;;5.23;4.33;;;;;;;15.73;100.00;99261.00;10456251;28;20670;-74
2021/08/10 03:48:14;;;;;;;5.37;4.50;;;;;;;15.61;100.00;99250.56;10455427;28;20207;-76
2021/08/10 03:53:34;;;;;;;5.83;4.90;;;;;;;15.65;100.00;99251.28;10455658;28;20171;-76
2021/08/10 03:58:54;;;;;;;5.03;4.63;;;;;;;15.66;100.00;99247.28;10455479;28;20180;-76
2021/08/10 04:04:14;;;;;;;4.73;4.30;;;;;;;15.65;100.00;99248.50;10456899;28;20618;-76
2021/08/10 04:09:37;;;;;;;4.80;4.40;;;;;;;15.73;100.00;99252.69;10496835;28;20210;-75
2021/08/10 04:14:56;;;;;;;4.40;4.00;;;;;;;15.57;100.00;99260.94;10496748;28;20178;-74
2021/08/10 04:20:17;;;;;;;6.87;3.97;;;;;;;15.73;100.00;99254.66;10496367;28;20175;-75
2021/08/10 04:25:36;;;;;;;5.97;4.70;;;;;;;15.66;100.00;99263.13;10497484;28;20174;-77
2021/08/10 04:30:55;;;;;;;8.10;4.20;;;;;;;15.71;100.00;99274.50;10496641;28;20289;-77
2021/08/10 04:36:14;;;;;;;4.20;3.70;;;;;;;15.62;100.00;99279.84;10458850;28;20214;-75
2021/08/10 04:41:33;;;;;;;4.60;4.20;;;;;;;15.77;100.00;99275.56;10455089;28;20231;-76
2021/08/10 04:46:52;;;;;;;4.93;4.37;;;;;;;15.79;100.00;99266.84;10454215;28;20207;-75
2021/08/10 04:52:11;;;;;;;4.47;4.17;;;;;;;15.64;100.00;99269.13;10454388;28;20183;-75
2021/08/10 04:57:30;;;;;;;4.30;4.00;;;;;;;15.69;100.00;99262.28;10475659;28;20245;-75
2021/08/10 05:02:49;;;;;;;5.33;4.57;;;;;;;15.75;100.00;99263.34;10477807;28;20662;-76
2021/08/10 05:08:08;;;;;;;5.23;4.73;;;;;;;15.78;100.00;99274.34;10461727;28;20215;-76
2021/08/10 05:13:28;;;;;;;5.83;3.93;;;;;;;15.83;100.00;99271.06;10462486;28;20207;-75
2021/08/10 05:18:49;;;;;;;4.63;4.20;;;;;;;15.90;100.00;99261.81;10522294;28;20641;-75
2021/08/10 05:24:08;;;;;;;4.03;3.73;;;;;;;16.00;100.00;99276.25;10498172;28;20648;-75
2021/08/10 05:29:27;;;;;;;4.57;4.27;;;;;;;16.07;100.00;99284.41;10471182;28;20752;-76
2021/08/10 05:34:45;;;;;;;5.07;3.80;;;;;;;16.20;100.00;99296.38;10472257;28;20187;-75
2021/08/10 05:40:05;;;;;;;11.27;4.00;;;;;;;16.25;100.00;99298.66;10496967;28;20237;-76
2021/08/10 05:45:24;;;;;;;4.40;4.00;;;;;;;16.28;100.00;99285.91;10480406;28;20182;-76
2021/08/10 05:50:45;;;;;;;6.27;4.70;;;;;;;16.44;100.00;99281.16;10500169;28;20231;-76
2021/08/10 05:56:05;;;;;;;6.07;4.70;;;;;;;16.57;100.00;99287.63;10501586;28;20182;-76
2021/08/10 06:01:24;;;;;;;6.20;5.00;;;;;;;16.64;100.00;99295.78;10501273;28;20171;-76
2021/08/10 06:06:43;;;;;;;6.10;4.27;;;;;;;16.79;100.00;99289.44;10500807;28;20175;-75
2021/08/10 06:12:02;;;;;;;4.07;3.77;;;;;;;16.87;100.00;99276.94;10473484;28;20601;-76
2021/08/10 06:17:21;;;;;;;5.73;4.60;;;;;;;17.05;100.00;99276.44;10458135;28;20533;-76
2021/08/10 06:22:40;;;;;;;5.80;5.17;;;;;;;17.08;100.00;99261.69;10460255;28;20598;-76
2021/08/10 06:27:59;;;;;;;5.27;4.80;;;;;;;17.18;100.00;99263.38;10459700;28;20210;-75
2021/08/10 06:33:18;;;;;;;5.20;4.47;;;;;;;17.36;98.65;99269.25;10458659;28;20176;-75
2021/08/10 06:38:37;;;;;;;5.90;4.60;;;;;;;17.61;98.18;99275.69;10458207;28;20176;-75
2021/08/10 06:43:56;;;;;;;8.80;4.80;;;;;;;18.00;97.46;99258.63;10458452;28;20284;-75
2021/08/10 06:49:15;;;;;;;7.00;4.43;;;;;;;18.25;94.79;99242.72;10457511;28;20207;-75
2021/08/10 06:54:35;;;;;;;5.67;4.83;;;;;;;18.27;93.62;99228.34;10485158;28;20261;-76
2021/08/10 06:59:54;;;;;;;5.47;4.60;;;;;;;18.41;94.83;99212.72;10499990;28;20183;-75
2021/08/10 07:05:14;;;;;;;5.00;4.40;;;;;;;18.67;92.48;99239.31;10497338;28;20559;-76
2021/08/10 07:10:33;;;;;;;4.73;3.80;;;;;;;18.80;88.81;99240.09;10498877;28;20210;-76
2021/08/10 07:15:52;;;;;;;3.93;3.23;;;;;;;18.97;88.03;99216.38;10498921;28;20660;-76
2021/08/10 07:21:11;;;;;;;5.03;3.50;;;;;;;19.15;85.95;99160.75;10498453;28;20179;-77
2021/08/10 07:26:32;;;;;;;5.23;3.40;;;;;;;19.21;84.22;99211.97;10457573;28;20195;-77
2021/08/10 07:31:51;;;;;;;7.63;3.23;;;;;;;19.08;83.18;99236.28;10456132;28;20537;-76
2021/08/10 07:37:10;;;;;;;10.47;5.20;;;;;;;19.30;82.31;99242.72;10457230;28;20171;-76
2021/08/10 07:42:29;;;;;;;5.50;5.10;;;;;;;19.23;82.00;99243.75;10456318;28;20219;-76
2021/08/10 07:47:48;;;;;;;5.43;3.27;;;;;;;19.32;80.85;99246.59;10455503;28;20211;-77
2021/08/10 07:53:06;;;;;;;4.37;3.93;;;;;;;19.22;82.56;99277.69;10470447;28;20186;-76
2021/08/10 07:58:26;;;;;;;8.13;4.03;;;;;;;19.12;82.82;99286.41;10498059;28;20232;-75
2021/08/10 08:03:45;;;;;;;5.50;3.97;;;;;;;18.99;83.25;99291.22;10496484;28;20167;-76
2021/08/10 08:09:03;;;;;;;7.00;4.27;;;;;;;19.23;83.84;99284.78;10497303;28;20218;-76
2021/08/10 08:14:23;;;;;;;4.47;4.07;;;;;;;20.13;82.55;99281.41;10497497;28;20637;-75
2021/08/10 08:19:42;;;;;;;14.23;3.90;;;;;;;21.50;78.24;99280.06;10496251;28;20216;-75
2021/08/10 08:25:01;;;;;;;6.57;3.53;;;;;;;22.55;71.13;99268.28;10480560;28;20182;-77
2021/08/10 08:30:20;;;;;;;6.27;3.30;;;;;;;24.04;68.11;99275.75;10500796;28;20564;-77
2021/08/10 08:35:41;;;;;;;4.27;3.30;;;;;;;23.07;61.76;99275.34;10504299;28;20182;-77
2021/08/10 08:41:00;;;;;;;4.57;2.77;;;;;;;22.17;66.01;99275.75;10505003;28;20222;-77
2021/08/10 08:46:21;;;;;;;6.07;2.67;;;;;;;22.52;66.77;99274.06;10503076;28;20175;-76
2021/08/10 08:51:47;;;;;;;7.30;3.00;;;;;;;22.19;63.38;99284.47;10499804;28;20203;-76
2021/08/10 08:57:06;;;;;;;3.40;2.70;;;;;;;23.15;65.01;99285.72;10463535;28;20179;-76
2021/08/10 09:02:25;;;;;;;2.63;2.43;;;;;;;23.14;60.85;99284.16;10460993;28;20262;-76
2021/08/10 09:07:44;;;;;;;3.03;2.47;;;;;;;22.56;59.73;99285.88;10462000;28;20286;-76
2021/08/10 09:13:04;;;;;;;2.77;2.57;;;;;;;22.63;60.31;99285.53;10462765;28;20565;-76
2021/08/10 09:18:23;;;;;;;5.47;3.23;;;;;;;23.43;64.22;99287.81;10461356;28;20588;-76
2021/08/10 09:23:50;;;;;;;3.23;2.70;;;;;;;23.75;58.32;99275.72;10482689;28;20174;-76
2021/08/10 09:29:09;;;;;;;3.60;2.50;;;;;;;24.35;60.45;99273.94;10502255;28;20289;-76
2021/08/10 09:34:30;;;;;;;4.60;2.47;;;;;;;24.61;53.84;99276.94;10502252;28;20175;-76
2021/08/10 09:39:48;;;;;;;4.07;2.23;;;;;;;24.60;49.25;99272.59;10502581;28;20736;-76
2021/08/10 09:45:08;;;;;;;4.73;2.60;;;;;;;24.17;50.85;99265.75;10503039;28;20206;-76
2021/08/10 09:50:27;;;;;;;4.20;2.13;;;;;;;24.34;51.33;99263.19;10500058;28;20202;-76
2021/08/10 09:55:56;;;;;;;4.63;2.53;;;;;;;23.97;52.90;99267.69;10461144;28;20183;-76
2021/08/10 10:01:45;;;;;;;3.00;2.07;;;;;;;23.91;54.06;99271.66;10460158;28;20188;-75
2021/08/10 10:07:10;;;;;;;2.37;2.17;;;;;;;24.29;51.63;99270.28;10460600;28;20172;-76
2021/08/10 10:12:30;;;;;;;2.47;2.27;;;;;;;24.55;51.22;99270.47;10460622;28;20614;-75
2021/08/10 10:17:49;;;;;;;2.97;2.07;;;;;;;24.76;50.31;99261.56;10459162;28;20203;-75
2021/08/10 10:23:12;;;;;;;3.97;2.33;;;;;;;24.05;51.79;99268.84;10477959;28;20547;-75
2021/08/10 10:28:33;;;;;;;4.47;2.00;;;;;;;24.71;49.61;99265.06;10501213;28;20564;-75
2021/08/10 10:33:52;;;;;;;3.13;2.60;;;;;;;25.31;49.40;99268.72;10499923;28;20178;-75
2021/08/10 10:39:22;;;;;;;4.67;2.57;;;;;;;26.08;47.93;99261.91;10499866;28;20609;-76
2021/08/10 10:44:42;;;;;;;5.13;2.20;;;;;;;27.18;43.51;99263.47;10500632;28;20182;-76
2021/08/10 10:50:02;;;;;;;3.50;2.70;;;;;;;26.00;44.89;99262.84;10497916;28;20206;-75
2021/08/10 10:55:31;;;;;;;2.70;2.50;;;;;;;25.82;46.30;99252.66;10459461;28;20188;-76
2021/08/10 11:01:10;;;;;;;5.80;2.70;;;;;;;25.91;48.47;99254.56;10457756;28;20537;-76
2021/08/10 11:06:31;;;;;;;4.63;2.60;;;;;;;25.54;45.96;99245.16;10460552;28;20187;-75
2021/08/10 11:11:55;;;;;;;2.67;2.23;;;;;;;25.43;47.13;99245.06;10458183;28;20186;-75
2021/08/10 11:17:15;;;;;;;6.53;2.43;;;;;;;25.80;49.31;99256.50;10456898;28;20626;-76
2021/08/10 11:22:34;;;;;;;5.90;2.80;;;;;;;26.38;48.70;99251.13;10472236;28;20179;-76
2021/08/10 11:27:53;;;;;;;7.67;2.90;;;;;;;26.28;44.08;99246.94;10497806;28;20210;-76
2021/08/10 11:33:33;;;;;;;2.80;2.47;;;;;;;25.23;46.48;99244.31;10497518;28;20183;-77
2021/08/10 11:38:52;;;;;;;3.30;3.00;;;;;;;25.22;47.65;99251.22;10498310;28;20528;-76
2021/08/10 11:44:19;;;;;;;2.60;2.40;;;;;;;25.46;46.33;99235.59;10498559;28;20175;-76
2021/08/10 11:49:38;;;;;;;4.33;2.80;;;;;;;24.99;47.49;99241.69;10495729;28;20198;-76
2021/08/10 11:54:58;;;;;;;2.97;2.50;;;;;;;24.67;47.94;99238.41;10461754;28;20547;-76
2021/08/10 12:00:20;;;;;;;2.97;2.70;;;;;;;24.61;46.68;99231.94;10455681;28;20183;-75
2021/08/10 12:05:44;;;;;;;5.50;2.90;;;;;;;24.94;46.55;99235.97;10455191;28;20257;-76
2021/08/10 12:11:03;;;;;;;5.67;2.73;;;;;;;25.37;45.93;99229.38;10455658;28;20279;-76
2021/08/10 12:16:22;;;;;;;3.00;2.63;;;;;;;25.26;44.77;99230.03;10454820;28;20183;-76
2021/08/10 12:21:43;;;;;;;2.73;2.53;;;;;;;26.12;45.21;99225.78;10469070;28;20253;-76
2021/08/10 12:27:03;;;;;;;3.87;3.20;;;;;;;27.27;41.95;99208.78;10489699;28;20545;-76
2021/08/10 12:32:24;;;;;;;4.93;2.77;;;;;;;27.57;41.85;99208.63;10496260;28;20257;-76
2021/08/10 12:43:12;;;;;;;3.57;2.73;;;;;;;27.81;38.51;99196.84;10476866;23;20237;-76
2021/08/10 12:48:33;;;;;;;3.87;2.97;;;;;;;28.19;40.52;99187.63;10332921;28;20240;-76
2021/08/10 12:53:54;;;;;;;3.50;3.20;;;;;;;27.26;41.97;99182.59;10331705;28;20174;-75
2021/08/10 12:59:14;;;;;;;4.00;3.23;;;;;;;26.61;42.24;99179.47;10331850;28;20549;-76
2021/08/10 13:04:33;;;;;;;6.43;2.83;;;;;;;25.53;46.38;99187.28;10332268;28;20181;-75
2021/08/10 13:09:57;;;;;;;3.97;2.77;;;;;;;25.47;46.85;99183.63;10330270;28;20205;-75
2021/08/10 13:15:16;;;;;;;9.73;2.80;;;;;;;26.05;45.06;99178.28;10334488;28;20185;-75
2021/08/10 13:20:49;;;;;;;3.00;2.70;;;;;;;26.17;45.13;99174.28;10339086;28;20187;-76
2021/08/10 13:26:12;;;;;;;3.17;2.90;;;;;;;25.82;43.81;99170.16;10338659;28;20185;-75
2021/08/10 13:31:53;;;;;;;4.03;3.10;;;;;;;26.23;43.42;99163.03;10337995;28;20221;-76
2021/08/10 13:37:12;;;;;;;6.53;2.67;;;;;;;25.85;46.66;99158.66;10338649;28;20607;-76
2021/08/10 13:42:31;;;;;;;4.63;2.80;;;;;;;26.64;44.15;99154.59;10337081;28;20262;-75
2021/08/10 13:47:53;;;;;;;4.20;3.20;;;;;;;26.05;44.62;99152.16;10337805;28;20205;-76
2021/08/10 13:53:12;;;;;;;3.90;3.70;;;;;;;25.63;45.69;99151.25;10338750;28;20524;-76
2021/08/10 13:58:32;;;;;;;4.33;3.10;;;;;;;25.76;44.29;99151.66;10338668;28;20174;-76
2021/08/10 14:03:51;;;;;;;3.73;3.43;;;;;;;27.11;42.74;99136.84;10337389;28;20209;-76
2021/08/10 14:09:10;;;;;;;6.60;3.93;;;;;;;26.83;40.76;99130.28;10336562;28;20301;-76
2021/08/10 14:14:29;;;;;;;7.30;3.43;;;;;;;26.57;42.91;99145.06;10337704;28;20185;-75
2021/08/10 14:19:48;;;;;;;6.33;4.00;;;;;;;26.43;43.42;99124.22;10337846;28;20529;-76
2021/08/10 14:25:07;;;;;;;6.83;3.90;;;;;;;26.42;43.51;99130.34;10335625;28;20214;-76
2021/08/10 14:30:27;;;;;;;3.83;3.13;;;;;;;26.81;42.29;99127.22;10336529;28;20209;-75
2021/08/10 14:35:46;;;;;;;4.10;3.33;;;;;;;26.00;44.00;99135.97;10337397;28;20249;-77
2021/08/10 14:41:05;;;;;;;4.83;3.90;;;;;;;26.35;42.71;99125.16;10335240;28;20691;-76
2021/08/10 14:46:24;;;;;;;4.63;3.70;;;;;;;26.18;42.34;99124.28;10336401;28;20178;-76
2021/08/10 14:51:43;;;;;;;4.60;3.93;;;;;;;26.32;43.96;99118.47;10336106;28;20205;-76
2021/08/10 14:57:02;;;;;;;4.33;4.00;;;;;;;26.10;43.88;99123.19;10334074;28;20211;-76
2021/08/10 15:02:21;;;;;;;7.73;4.10;;;;;;;25.35;44.06;99131.28;10336203;28;20177;-76
2021/08/10 15:07:41;;;;;;;5.33;4.20;;;;;;;25.18;44.80;99121.09;10334175;28;20235;-75
2021/08/10 15:13:00;;;;;;;4.10;3.67;;;;;;;25.32;45.00;99112.56;10333357;28;20655;-76
2021/08/10 15:18:19;;;;;;;4.27;3.90;;;;;;;25.53;44.01;99119.66;10335338;28;20188;-76
2021/08/10 15:23:38;;;;;;;4.50;4.10;;;;;;;25.59;45.05;99112.03;10334122;28;20177;-77
2021/08/10 15:28:57;;;;;;;5.17;4.43;;;;;;;25.24;44.40;99108.63;10333811;28;20205;-76
2021/08/10 15:34:16;;;;;;;5.03;3.93;;;;;;;24.91;45.56;99106.69;10334911;28;20177;-76
2021/08/10 15:39:35;;;;;;;4.27;3.97;;;;;;;25.09;46.91;99102.34;10333207;28;20201;-76
2021/08/10 15:44:54;;;;;;;6.03;4.23;;;;;;;25.03;45.71;99100.69;10333323;28;20190;-76
2021/08/10 15:50:17;;;;;;;4.77;4.37;;;;;;;24.81;46.72;99108.13;10334020;28;20695;-76
2021/08/10 15:55:35;;;;;;;4.33;3.70;;;;;;;24.88;45.12;99102.84;10333083;28;20264;-75
2021/08/10 16:00:54;;;;;;;4.87;3.90;;;;;;;24.92;45.54;99100.56;10334273;28;20178;-77
2021/08/10 16:06:13;;;;;;;6.00;3.77;;;;;;;24.78;47.05;99109.13;10334002;28;20542;-77
2021/08/10 16:11:32;;;;;;;5.57;4.10;;;;;;;24.39;47.13;99099.41;10331839;28;20213;-76
2021/08/10 16:16:52;;;;;;;4.23;3.83;;;;;;;24.42;47.94;99098.41;10333462;28;20631;-76
2021/08/10 16:22:11;;;;;;;4.27;3.87;;;;;;;24.32;48.82;99096.97;10333596;28;20525;-76
2021/08/10 16:27:30;;;;;;;4.67;4.27;;;;;;;24.18;48.45;99090.19;10332160;28;20197;-76
2021/08/10 16:32:50;;;;;;;6.40;4.30;;;;;;;24.49;50.63;99087.53;10326781;28;20165;-76
2021/08/10 16:38:09;;;;;;;5.67;3.60;;;;;;;24.71;47.98;99089.84;10295914;28;20205;-77
2021/08/10 16:43:28;;;;;;;7.47;4.57;;;;;;;25.03;48.34;99083.81;10318693;28;20221;-76
2021/08/10 16:48:47;;;;;;;8.43;5.50;;;;;;;24.82;47.70;99082.31;10331935;28;20623;-76
2021/08/10 16:54:06;;;;;;;4.63;4.20;;;;;;;24.55;49.06;99087.63;10307089;28;20181;-76
2021/08/10 16:59:25;;;;;;;4.40;4.00;;;;;;;24.54;48.44;99086.81;10340728;28;20620;-77
2021/08/10 17:04:44;;;;;;;7.43;4.93;;;;;;;24.47;49.39;99080.88;10332877;28;20190;-76
2021/08/10 17:10:04;;;;;;;4.80;4.40;;;;;;;24.21;49.81;99085.59;10298595;28;20607;-77
2021/08/10 17:15:24;;;;;;;4.67;4.27;;;;;;;24.06;50.89;99081.28;10299948;28;20640;-76
2021/08/10 17:20:43;;;;;;;6.40;3.87;;;;;;;24.08;50.52;99085.16;10299888;28;20648;-77
2021/08/10 17:26:03;;;;;;;5.97;4.37;;;;;;;25.49;47.43;99079.66;10298548;28;20174;-76
2021/08/10 17:31:22;;;;;;;5.97;4.13;;;;;;;24.55;49.77;99074.31;10297772;28;20245;-77
2021/08/10 17:36:41;;;;;;;6.17;4.83;;;;;;;25.24;48.15;99076.91;10313491;28;20538;-77
2021/08/10 17:42:00;;;;;;;4.40;4.00;;;;;;;26.45;45.72;99070.88;10337711;28;20649;-76
2021/08/10 17:47:19;;;;;;;7.10;4.40;;;;;;;26.53;44.42;99065.50;10338097;28;20224;-76
2021/08/10 17:52:39;;;;;;;5.03;4.50;;;;;;;25.81;44.48;99073.53;10337817;28;20248;-76
2021/08/10 17:57:58;;;;;;;10.13;4.53;;;;;;;26.25;44.67;99068.19;10336598;28;20177;-77
2021/08/10 18:03:17;;;;;;;5.77;5.00;;;;;;;25.66;45.62;99074.94;10338068;28;20624;-76
2021/08/10 18:08:36;;;;;;;6.07;4.57;;;;;;;23.95;50.55;99075.53;10336994;28;20204;-76
2021/08/10 18:13:55;;;;;;;7.40;5.07;;;;;;;23.45;52.35;99080.31;10337991;28;20643;-77
2021/08/10 18:19:14;;;;;;;5.90;4.87;;;;;;;23.11;53.50;99074.63;10338084;28;20205;-75
2021/08/10 18:24:33;;;;;;;4.60;4.20;;;;;;;22.93;54.14;99083.19;10336651;28;20181;-76
2021/08/10 18:29:52;;;;;;;6.30;5.50;;;;;;;22.54;55.84;99086.47;10337000;28;20213;-77
2021/08/10 18:35:11;;;;;;;5.00;4.50;;;;;;;22.38;57.24;99092.53;10335976;28;20181;-76
2021/08/10 18:40:30;;;;;;;6.33;4.80;;;;;;;22.28;57.42;99101.44;10335680;28;20233;-75
2021/08/10 18:45:53;;;;;;;7.30;5.30;;;;;;;22.03;58.98;99119.50;10337055;28;20185;-76
2021/08/10 18:51:13;;;;;;;5.73;5.10;;;;;;;21.86;60.32;99117.56;10335419;28;20307;-75
2021/08/10 18:56:32;;;;;;;4.67;4.03;;;;;;;21.55;61.64;99127.50;10335372;28;20173;-76
2021/08/10 19:01:50;;;;;;;5.80;5.17;;;;;;;21.24;63.03;99138.13;10336056;28;20268;-76
2021/08/10 19:07:10;;;;;;;6.70;5.23;;;;;;;21.08;64.86;99136.41;10335093;28;20182;-76
2021/08/10 19:12:28;;;;;;;6.30;4.70;;;;;;;20.87;66.29;99135.81;10333216;28;20181;-76
2021/08/10 19:17:47;;;;;;;7.90;5.10;;;;;;;20.60;68.09;99142.13;10335741;28;20213;-76
2021/08/10 19:23:09;;;;;;;10.63;5.70;;;;;;;20.37;69.59;99151.13;10335477;28;20592;-76
2021/08/10 19:28:29;;;;;;;6.70;4.93;;;;;;;20.24;70.24;99147.69;10335042;28;20217;-76
2021/08/10 19:33:47;;;;;;;7.70;4.23;;;;;;;20.21;71.56;99162.56;10334756;28;20182;-76
2021/08/10 19:39:06;;;;;;;5.00;4.50;;;;;;;19.87;73.18;99159.16;10333595;28;20213;-76
2021/08/10 19:44:26;;;;;;;7.67;4.87;;;;;;;19.71;74.17;99162.19;10334077;28;20220;-76
2021/08/10 19:49:46;;;;;;;5.27;4.77;;;;;;;19.62;75.19;99170.53;10332880;28;20209;-76
2021/08/10 19:55:05;;;;;;;7.10;4.63;;;;;;;19.53;76.26;99180.88;10333140;28;20530;-76
2021/08/10 20:00:24;;;;;;;8.13;4.27;;;;;;;19.44;75.85;99184.38;10333859;28;20181;-75
2021/08/10 20:05:44;;;;;;;5.00;4.60;;;;;;;19.35;76.88;99181.50;10333956;28;20559;-76
2021/08/10 20:11:03;;;;;;;6.63;5.03;;;;;;;19.21;78.38;99186.06;10331214;28;20201;-75
2021/08/10 20:16:23;;;;;;;12.77;5.30;;;;;;;19.02;79.86;99187.91;10332729;28;20181;-75
2021/08/10 20:21:44;;;;;;;8.87;5.30;;;;;;;18.90;80.69;99194.31;10333714;28;20272;-76
2021/08/10 20:27:03;;;;;;;7.30;4.80;;;;;;;18.93;81.29;99199.00;10331394;28;20623;-76
2021/08/10 20:32:22;;;;;;;6.33;5.00;;;;;;;19.06;79.65;99207.31;10333346;28;20189;-76
2021/08/10 20:37:41;;;;;;;9.80;5.83;;;;;;;18.83;79.95;99211.28;10333192;28;20670;-76
2021/08/10 20:43:00;;;;;;;9.40;4.53;;;;;;;18.84;80.56;99218.41;10331459;28;20237;-76
2021/08/10 20:48:19;;;;;;;8.17;5.57;;;;;;;18.68;81.68;99226.94;10333081;28;20610;-76
2021/08/10 20:53:39;;;;;;;7.03;5.30;;;;;;;18.51;82.70;99217.16;10331746;28;20182;-75
2021/08/10 20:59:00;;;;;;;9.50;5.47;;;;;;;18.46;84.02;99225.31;10333042;28;20631;-75
2021/08/10 21:04:19;;;;;;;8.50;5.63;;;;;;;18.31;85.36;99229.78;10332491;28;20696;-76
2021/08/10 21:09:38;;;;;;;11.43;5.77;;;;;;;18.13;86.80;99226.78;10331340;28;20299;-76
2021/08/10 21:14:57;;;;;;;15.00;6.10;;;;;;;17.99;88.44;99232.00;10332609;28;20177;-75
2021/08/10 21:20:16;;;;;;;7.17;5.13;;;;;;;17.86;89.53;99234.78;10331369;28;20216;-76
2021/08/10 21:25:35;;;;;;;10.40;6.53;;;;;;;17.79;91.11;99237.78;10330078;28;20628;-75
2021/08/10 21:30:55;;;;;;;11.63;5.50;;;;;;;17.57;91.01;99246.44;10330410;28;20576;-76
2021/08/10 21:36:13;;;;;;;8.50;6.07;;;;;;;17.58;91.40;99252.31;10334022;28;20205;-76
2021/08/10 21:41:32;;;;;;;6.00;5.50;;;;;;;17.61;92.01;99245.06;10336897;28;20221;-75
2021/08/10 21:46:51;;;;;;;7.87;5.67;;;;;;;17.65;91.53;99256.91;10339223;28;20644;-76
2021/08/10 21:52:10;;;;;;;10.43;5.93;;;;;;;17.48;93.01;99254.63;10337273;28;20205;-75
2021/08/10 21:57:29;;;;;;;9.80;6.20;;;;;;;17.44;93.41;99260.31;10336889;28;20542;-76
2021/08/10 22:02:48;;;;;;;9.73;6.63;;;;;;;17.16;94.69;99265.84;10338306;28;20188;-76
2021/08/10 22:08:07;;;;;;;8.07;6.17;;;;;;;17.24;95.29;99267.97;10337448;28;20613;-75
2021/08/10 22:13:26;;;;;;;12.40;5.33;;;;;;;17.19;95.98;99274.06;10336637;28;20178;-76
2021/08/10 22:18:45;;;;;;;6.60;5.87;;;;;;;17.08;96.70;99270.03;10337147;28;20177;-75
2021/08/10 22:24:04;;;;;;;9.53;5.57;;;;;;;16.91;98.19;99274.81;10335505;28;20177;-75
2021/08/10 22:29:23;;;;;;;6.53;5.50;;;;;;;16.81;99.44;99269.53;10337319;28;20292;-76
2021/08/10 22:34:42;;;;;;;12.10;5.80;;;;;;;16.80;99.87;99274.31;10337089;28;20185;-76
2021/08/10 22:40:02;;;;;;;6.87;5.60;;;;;;;16.82;98.85;99280.22;10335709;28;20181;-75
2021/08/10 22:45:21;;;;;;;8.17;5.70;;;;;;;16.80;98.85;99288.19;10336959;28;20215;-74
2021/08/10 22:50:40;;;;;;;11.27;6.33;;;;;;;16.83;99.12;99283.78;10335376;28;20292;-75
2021/08/10 22:55:59;;;;;;;7.17;5.63;;;;;;;16.76;99.27;99299.84;10335347;28;20181;-75
2021/08/10 23:01:18;;;;;;;8.47;6.33;;;;;;;16.73;100.00;99297.94;10336010;28;20189;-76
2021/08/10 23:06:37;;;;;;;15.67;6.00;;;;;;;16.68;100.00;99285.34;10336145;28;20181;-75
2021/08/10 23:11:56;;;;;;;7.87;5.97;;;;;;;16.53;100.00;99283.34;10334054;28;20205;-75
2021/08/10 23:17:15;;;;;;;12.67;6.50;;;;;;;16.50;100.00;99295.31;10335757;28;20177;-76
2021/08/10 23:22:34;;;;;;;6.47;5.87;;;;;;;16.46;100.00;99297.41;10335460;28;20181;-75
2021/08/10 23:27:53;;;;;;;7.73;6.97;;;;;;;16.40;100.00;99296.34;10333030;28;20205;-75
2021/08/10 23:33:12;;;;;;;9.13;6.30;;;;;;;16.38;100.00;99288.47;10333264;28;20193;-76
2021/08/10 23:38:31;;;;;;;10.43;6.60;;;;;;;16.31;100.00;99296.97;10333604;28;20205;-76
2021/08/10 23:43:49;;;;;;;7.47;6.47;;;;;;;16.49;100.00;99304.88;10332956;28;20263;-75
2021/08/10 23:49:08;;;;;;;7.07;6.37;;;;;;;16.33;100.00;99302.06;10334277;28;20205;-76
2021/08/10 23:54:27;;;;;;;6.97;6.27;;;;;;;16.32;100.00;99297.72;10333246;28;20264;-76
2021/08/10 23:59:46;;;;;;;14.43;6.57;;;;;;;16.33;100.00;99304.84;10334054;28;20182;-75
